createdAt,value
2017-10-11T00:00:57.904Z,98.61
2017-10-11T00:02:19.487Z,98.90
2017-10-11T00:02:58.755Z,99.00
2017-10-11T00:03:59.199Z,99.05
2017-10-11T00:04:59.633Z,99.19
2017-10-11T00:06:00.049Z,99.10
2017-10-11T00:07:00.479Z,99.00
2017-10-11T00:08:22.076Z,98.90
2017-10-11T00:09:01.353Z,99.10
2017-10-11T00:10:01.776Z,98.71
2017-10-11T00:11:02.208Z,99.10
2017-10-11T00:12:02.674Z,99.00
2017-10-11T00:13:03.072Z,98.33
2017-10-11T00:14:24.660Z,98.14
2017-10-11T00:15:03.935Z,98.52
2017-10-11T00:16:04.363Z,99.19
2017-10-11T00:17:04.804Z,99.00
2017-10-11T00:18:05.229Z,99.00
2017-10-11T00:19:05.661Z,98.43
2017-10-11T00:20:27.251Z,97.95
2017-10-11T00:21:06.536Z,98.04
2017-10-11T00:22:06.953Z,98.33
2017-10-11T00:23:07.383Z,99.19
2017-10-11T00:24:07.824Z,98.90
2017-10-11T00:25:08.248Z,99.29
2017-10-11T00:26:29.835Z,99.10
2017-10-11T00:27:09.106Z,99.29
2017-10-11T00:28:09.550Z,99.29
2017-10-11T00:29:09.980Z,98.24
2017-10-11T00:30:10.402Z,98.04
2017-10-11T00:31:10.833Z,99.00
2017-10-11T00:32:32.423Z,98.33
2017-10-11T00:33:11.700Z,98.33
2017-10-11T00:34:12.128Z,99.10
2017-10-11T00:35:12.571Z,99.00
2017-10-11T00:36:12.992Z,98.43
2017-10-11T00:37:13.419Z,98.14
2017-10-11T00:38:35.034Z,98.33
2017-10-11T00:39:14.282Z,98.33
2017-10-11T00:40:14.721Z,98.52
2017-10-11T00:41:15.147Z,99.10
2017-10-11T00:42:15.586Z,99.10
2017-10-11T00:43:16.016Z,98.61
2017-10-11T00:44:37.608Z,99.48
2017-10-11T00:45:16.868Z,99.00
2017-10-11T00:46:17.306Z,99.10
2017-10-11T00:47:17.736Z,99.10
2017-10-11T00:48:18.184Z,99.00
2017-10-11T00:49:18.614Z,99.57
2017-10-11T00:50:40.193Z,98.81
2017-10-11T00:51:19.477Z,99.29
2017-10-11T00:52:19.899Z,99.19
2017-10-11T00:53:20.323Z,98.81
2017-10-11T00:54:20.756Z,99.00
2017-10-11T00:55:21.197Z,99.00
2017-10-11T00:56:42.778Z,99.10
2017-10-11T00:57:22.052Z,99.05
2017-10-11T00:58:22.477Z,99.00
2017-10-11T00:59:22.918Z,99.19
2017-10-11T01:00:23.364Z,99.10
2017-10-11T01:01:23.773Z,99.00
2017-10-11T01:02:45.365Z,98.90
2017-10-11T01:03:24.649Z,98.71
2017-10-11T01:04:25.091Z,99.29
2017-10-11T01:05:25.501Z,99.00
2017-10-11T01:06:25.937Z,99.19
2017-10-11T01:07:26.375Z,98.90
2017-10-11T01:08:47.955Z,99.57
2017-10-11T01:09:27.241Z,99.99
2017-10-11T01:10:27.657Z,98.86
2017-10-11T01:11:28.092Z,99.10
2017-10-11T01:12:28.525Z,98.76
2017-10-11T01:13:28.955Z,99.00
2017-10-11T01:14:50.555Z,99.57
2017-10-11T01:15:29.819Z,99.38
2017-10-11T01:16:30.260Z,99.62
2017-10-11T01:17:30.680Z,99.72
2017-10-11T01:18:31.114Z,99.52
2017-10-11T01:19:31.544Z,99.62
2017-10-11T01:20:53.136Z,99.62
2017-10-11T01:21:32.400Z,99.38
2017-10-11T01:22:32.844Z,99.67
2017-10-11T01:23:33.272Z,99.81
2017-10-11T01:24:33.700Z,99.81
2017-10-11T01:25:34.128Z,99.81
2017-10-11T01:26:55.725Z,99.99
2017-10-11T01:27:34.998Z,99.62
2017-10-11T01:28:35.424Z,99.72
2017-10-11T01:29:35.858Z,99.24
2017-10-11T01:30:36.289Z,98.81
2017-10-11T01:31:36.738Z,99.62
2017-10-11T01:32:58.315Z,99.91
2017-10-11T01:33:37.583Z,99.81
2017-10-11T01:34:38.021Z,99.43
2017-10-11T01:35:38.448Z,99.99
2017-10-11T01:36:38.882Z,99.57
2017-10-11T01:37:39.309Z,99.52
2017-10-11T01:39:00.902Z,99.10
2017-10-11T01:39:40.175Z,99.10
2017-10-11T01:40:40.604Z,98.90
2017-10-11T01:41:41.045Z,99.00
2017-10-11T01:42:41.466Z,98.76
2017-10-11T01:43:41.899Z,98.95
2017-10-11T01:45:03.490Z,99.62
2017-10-11T01:45:42.761Z,99.67
2017-10-11T01:46:43.198Z,99.48
2017-10-11T01:47:43.630Z,99.38
2017-10-11T01:48:44.057Z,99.57
2017-10-11T01:49:44.493Z,99.00
2017-10-11T01:51:06.082Z,99.05
2017-10-11T01:51:45.350Z,99.19
2017-10-11T01:52:45.784Z,98.76
2017-10-11T01:53:46.211Z,99.00
2017-10-11T01:54:46.647Z,99.00
2017-10-11T01:55:47.078Z,98.52
2017-10-11T01:57:08.670Z,98.61
2017-10-11T01:57:47.942Z,98.81
2017-10-11T01:58:48.378Z,99.19
2017-10-11T01:59:48.802Z,99.19
2017-10-11T02:00:49.241Z,99.15
2017-10-11T02:01:49.663Z,98.90
2017-10-11T02:03:11.273Z,98.61
2017-10-11T02:03:50.528Z,99.00
2017-10-11T02:04:50.968Z,99.15
2017-10-11T02:05:51.396Z,99.29
2017-10-11T02:06:51.826Z,99.00
2017-10-11T02:07:52.253Z,98.95
2017-10-11T02:09:13.849Z,99.10
2017-10-11T02:09:53.122Z,98.90
2017-10-11T02:10:53.559Z,98.95
2017-10-11T02:11:53.984Z,99.24
2017-10-11T02:12:54.413Z,98.81
2017-10-11T02:13:54.845Z,99.19
2017-10-11T02:15:16.452Z,99.48
2017-10-11T02:15:55.729Z,98.76
2017-10-11T02:16:56.143Z,99.15
2017-10-11T02:17:56.576Z,99.00
2017-10-11T02:18:57.011Z,99.10
2017-10-11T02:19:57.434Z,99.10
2017-10-11T02:21:19.053Z,99.00
2017-10-11T02:21:58.294Z,98.71
2017-10-11T02:22:58.758Z,99.33
2017-10-11T02:23:59.164Z,98.90
2017-10-11T02:24:59.602Z,98.14
2017-10-11T02:26:00.024Z,99.05
2017-10-11T02:27:21.613Z,99.15
2017-10-11T02:28:00.884Z,99.05
2017-10-11T02:29:01.337Z,98.61
2017-10-11T02:30:01.749Z,98.90
2017-10-11T02:31:02.182Z,98.95
2017-10-11T02:32:02.616Z,98.33
2017-10-11T02:33:24.205Z,98.14
2017-10-11T02:34:03.484Z,98.14
2017-10-11T02:35:03.906Z,98.33
2017-10-11T02:36:04.397Z,98.19
2017-10-11T02:37:04.780Z,98.04
2017-10-11T02:38:05.204Z,97.95
2017-10-11T02:39:26.793Z,96.99
2017-10-11T02:40:06.063Z,97.95
2017-10-11T02:41:06.496Z,98.00
2017-10-11T02:42:06.934Z,98.14
2017-10-11T02:43:07.383Z,97.28
2017-10-11T02:44:07.803Z,96.70
2017-10-11T02:45:29.384Z,96.89
2017-10-11T02:46:08.659Z,96.70
2017-10-11T02:47:09.090Z,96.89
2017-10-11T02:48:09.521Z,96.80
2017-10-11T02:49:09.954Z,96.70
2017-10-11T02:50:10.383Z,96.70
2017-10-11T02:51:31.970Z,96.80
2017-10-11T02:52:11.246Z,96.56
2017-10-11T02:53:11.681Z,96.03
2017-10-11T02:54:12.109Z,96.22
2017-10-11T02:55:12.543Z,96.32
2017-10-11T02:56:12.972Z,95.75
2017-10-11T02:57:34.562Z,95.17
2017-10-11T02:58:13.833Z,95.27
2017-10-11T02:59:14.269Z,95.17
2017-10-11T03:00:14.701Z,94.98
2017-10-11T03:01:15.130Z,94.79
2017-10-11T03:02:15.566Z,94.70
2017-10-11T03:03:37.148Z,95.46
2017-10-11T03:04:16.423Z,95.46
2017-10-11T03:05:16.859Z,94.79
2017-10-11T03:06:17.289Z,93.45
2017-10-11T03:07:17.717Z,93.16
2017-10-11T03:08:18.145Z,93.16
2017-10-11T03:09:39.738Z,93.16
2017-10-11T03:10:19.017Z,92.69
2017-10-11T03:11:19.443Z,92.59
2017-10-11T03:12:19.872Z,93.35
2017-10-11T03:13:20.318Z,91.63
2017-10-11T03:14:20.737Z,90.58
2017-10-11T03:15:42.339Z,90.20
2017-10-11T03:16:21.624Z,89.53
2017-10-11T03:17:22.031Z,90.77
2017-10-11T03:18:22.464Z,92.02
2017-10-11T03:19:22.895Z,93.26
2017-10-11T03:20:23.341Z,94.41
2017-10-11T03:21:44.923Z,93.55
2017-10-11T03:22:24.192Z,94.50
2017-10-11T03:23:24.626Z,93.93
2017-10-11T03:24:25.052Z,94.02
2017-10-11T03:25:25.483Z,93.64
2017-10-11T03:26:25.920Z,92.88
2017-10-11T03:27:47.510Z,93.55
2017-10-11T03:28:26.780Z,93.45
2017-10-11T03:29:27.212Z,91.83
2017-10-11T03:30:27.640Z,90.67
2017-10-11T03:31:28.078Z,90.96
2017-10-11T03:32:28.507Z,90.58
2017-10-11T03:33:50.101Z,91.16
2017-10-11T03:34:29.367Z,91.35
2017-10-11T03:35:29.807Z,89.87
2017-10-11T03:36:30.232Z,90.30
2017-10-11T03:37:30.692Z,90.34
2017-10-11T03:38:31.092Z,90.20
2017-10-11T03:39:52.697Z,90.77
2017-10-11T03:40:31.960Z,90.30
2017-10-11T03:41:32.393Z,89.62
2017-10-11T03:42:32.823Z,90.39
2017-10-11T03:43:33.255Z,90.20
2017-10-11T03:44:33.686Z,89.58
2017-10-11T03:45:55.283Z,89.67
2017-10-11T03:46:34.554Z,90.06
2017-10-11T03:47:34.982Z,90.73
2017-10-11T03:48:35.414Z,90.96
2017-10-11T03:49:35.845Z,90.67
2017-10-11T03:50:36.434Z,90.77
2017-10-11T03:51:57.873Z,90.77
2017-10-11T03:52:37.142Z,90.06
2017-10-11T03:53:37.579Z,89.01
2017-10-11T03:54:38.014Z,89.77
2017-10-11T03:55:38.438Z,90.25
2017-10-11T03:56:38.880Z,90.92
2017-10-11T03:58:00.473Z,90.73
2017-10-11T03:58:39.733Z,91.16
2017-10-11T03:59:40.173Z,89.10
2017-10-11T04:00:40.605Z,88.91
2017-10-11T04:01:41.156Z,89.77
2017-10-11T04:02:41.469Z,89.87
2017-10-11T04:04:03.052Z,90.92
2017-10-11T04:04:42.327Z,91.06
2017-10-11T04:05:42.761Z,90.73
2017-10-11T04:06:43.188Z,88.91
2017-10-11T04:07:43.622Z,89.67
2017-10-11T04:08:44.056Z,88.91
2017-10-11T04:10:05.651Z,90.25
2017-10-11T04:10:44.916Z,91.59
2017-10-11T04:11:45.381Z,92.30
2017-10-11T04:12:45.782Z,92.21
2017-10-11T04:13:46.215Z,91.30
2017-10-11T04:14:46.644Z,91.02
2017-10-11T04:16:08.248Z,92.07
2017-10-11T04:16:47.512Z,92.11
2017-10-11T04:17:47.946Z,93.02
2017-10-11T04:18:48.379Z,92.78
2017-10-11T04:19:48.805Z,93.45
2017-10-11T04:20:49.237Z,91.97
2017-10-11T04:22:10.872Z,90.06
2017-10-11T04:22:50.113Z,91.39
2017-10-11T04:23:50.535Z,92.21
2017-10-11T04:24:50.986Z,92.69
2017-10-11T04:25:51.453Z,92.07
2017-10-11T04:26:51.836Z,92.16
2017-10-11T04:28:13.423Z,92.93
2017-10-11T04:28:52.693Z,91.78
2017-10-11T04:29:53.126Z,91.11
2017-10-11T04:30:53.566Z,92.07
2017-10-11T04:31:54.015Z,91.68
2017-10-11T04:32:54.429Z,91.20
2017-10-11T04:34:16.016Z,90.92
2017-10-11T04:34:55.287Z,90.73
2017-10-11T04:35:55.734Z,90.92
2017-10-11T04:36:56.148Z,91.39
2017-10-11T04:37:56.586Z,91.11
2017-10-11T04:38:57.015Z,90.25
2017-10-11T04:40:18.602Z,90.82
2017-10-11T04:40:57.879Z,91.39
2017-10-11T04:41:58.309Z,92.25
2017-10-11T04:42:58.741Z,92.35
2017-10-11T04:43:59.171Z,91.49
2017-10-11T04:44:59.612Z,90.73
2017-10-11T04:46:21.200Z,91.78
2017-10-11T04:47:00.473Z,91.02
2017-10-11T04:48:00.901Z,92.07
2017-10-11T04:49:01.327Z,92.16
2017-10-11T04:50:01.759Z,92.16
2017-10-11T04:51:02.206Z,92.93
2017-10-11T04:52:23.815Z,92.83
2017-10-11T04:53:03.063Z,92.74
2017-10-11T04:54:03.492Z,92.74
2017-10-11T04:55:03.925Z,93.31
2017-10-11T04:56:04.369Z,92.83
2017-10-11T04:57:04.786Z,92.74
2017-10-11T04:58:26.375Z,92.64
2017-10-11T04:59:05.651Z,92.83
2017-10-11T05:00:06.076Z,92.54
2017-10-11T05:01:06.521Z,93.45
2017-10-11T05:02:06.943Z,93.21
2017-10-11T05:03:07.384Z,93.40
2017-10-11T05:04:28.970Z,93.40
2017-10-11T05:05:08.238Z,93.69
2017-10-11T05:06:08.677Z,93.60
2017-10-11T05:07:09.103Z,93.98
2017-10-11T05:08:09.536Z,93.50
2017-10-11T05:09:09.978Z,93.31
2017-10-11T05:10:31.564Z,93.31
2017-10-11T05:11:10.835Z,93.40
2017-10-11T05:12:11.272Z,93.40
2017-10-11T05:13:11.701Z,93.31
2017-10-11T05:14:12.126Z,93.45
2017-10-11T05:15:12.560Z,92.35
2017-10-11T05:16:34.153Z,91.49
2017-10-11T05:17:13.423Z,91.68
2017-10-11T05:18:13.866Z,91.88
2017-10-11T05:19:14.296Z,92.07
2017-10-11T05:20:14.719Z,92.35
2017-10-11T05:21:15.151Z,93.02
2017-10-11T05:22:36.748Z,93.16
2017-10-11T05:23:16.019Z,93.26
2017-10-11T05:24:16.450Z,92.54
2017-10-11T05:25:16.884Z,93.21
2017-10-11T05:26:17.308Z,93.50
2017-10-11T05:27:17.743Z,91.97
2017-10-11T05:28:39.335Z,92.16
2017-10-11T05:29:18.605Z,92.83
2017-10-11T05:30:19.039Z,92.83
2017-10-11T05:31:19.469Z,93.69
2017-10-11T05:32:19.909Z,93.98
2017-10-11T05:33:20.344Z,93.50
2017-10-11T05:34:41.923Z,93.02
2017-10-11T05:35:21.211Z,93.35
2017-10-11T05:36:21.629Z,93.64
2017-10-11T05:37:22.077Z,93.26
2017-10-11T05:38:22.496Z,92.64
2017-10-11T05:39:22.956Z,92.54
2017-10-11T05:40:44.524Z,92.64
2017-10-11T05:41:23.788Z,93.45
2017-10-11T05:42:24.227Z,93.69
2017-10-11T05:43:24.653Z,94.07
2017-10-11T05:44:25.091Z,94.21
2017-10-11T05:45:25.518Z,93.40
2017-10-11T05:46:47.108Z,94.02
2017-10-11T05:47:26.380Z,93.64
2017-10-11T05:48:26.810Z,93.26
2017-10-11T05:49:27.240Z,93.93
2017-10-11T05:50:27.692Z,93.45
2017-10-11T05:51:28.111Z,93.02
2017-10-11T05:52:49.697Z,93.45
2017-10-11T05:53:28.972Z,93.55
2017-10-11T05:54:29.401Z,94.02
2017-10-11T05:55:29.835Z,94.21
2017-10-11T05:56:30.273Z,94.41
2017-10-11T05:57:30.702Z,94.02
2017-10-11T05:58:52.294Z,94.41
2017-10-11T05:59:31.583Z,94.70
2017-10-11T06:00:32.003Z,94.70
2017-10-11T06:01:32.427Z,94.98
2017-10-11T06:02:32.859Z,94.79
2017-10-11T06:03:33.286Z,94.02
2017-10-11T06:04:54.942Z,94.50
2017-10-11T06:05:34.159Z,94.12
2017-10-11T06:06:34.584Z,93.02
2017-10-11T06:07:35.035Z,93.35
2017-10-11T06:08:35.443Z,93.35
2017-10-11T06:09:35.896Z,94.12
2017-10-11T06:10:57.474Z,93.74
2017-10-11T06:11:36.766Z,94.02
2017-10-11T06:12:37.177Z,93.93
2017-10-11T06:13:37.613Z,94.50
2017-10-11T06:14:38.044Z,93.55
2017-10-11T06:15:38.471Z,94.12
2017-10-11T06:17:00.070Z,94.79
2017-10-11T06:17:39.338Z,93.93
2017-10-11T06:18:39.778Z,94.41
2017-10-11T06:19:40.200Z,94.31
2017-10-11T06:20:40.650Z,94.41
2017-10-11T06:21:41.098Z,94.79
2017-10-11T06:23:02.668Z,94.79
2017-10-11T06:23:41.927Z,94.98
2017-10-11T06:24:42.397Z,94.98
2017-10-11T06:25:42.796Z,95.17
2017-10-11T06:28:23.636Z,96.70
2017-10-11T06:29:24.052Z,95.84
2017-10-11T06:31:21.395Z,96.42
2017-10-11T06:32:21.810Z,95.65
2017-10-11T06:34:16.463Z,95.27
2017-10-11T06:35:16.862Z,95.27
2017-10-11T06:37:11.468Z,96.32
2017-10-11T06:38:12.038Z,96.42
2017-10-11T06:40:19.304Z,95.75
2017-10-11T06:41:19.725Z,95.75
2017-10-11T06:43:14.289Z,95.36
2017-10-11T06:44:14.727Z,94.89
2017-10-11T06:46:09.301Z,95.46
2017-10-11T06:47:09.720Z,96.42
2017-10-11T06:49:04.277Z,96.13
2017-10-11T06:50:04.714Z,96.22
2017-10-11T06:51:59.319Z,95.75
2017-10-11T06:52:59.748Z,96.22
2017-10-11T06:54:57.701Z,97.28
2017-10-11T06:55:58.142Z,98.33
2017-10-11T06:57:52.714Z,98.47
2017-10-11T06:58:53.133Z,98.52
2017-10-11T07:00:47.718Z,97.95
2017-10-11T07:01:48.134Z,98.04
2017-10-11T07:03:42.921Z,99.05
2017-10-11T07:04:43.355Z,98.28
2017-10-11T07:06:37.940Z,99.33
2017-10-11T07:07:38.364Z,99.72
2017-10-11T07:09:32.924Z,98.47
2017-10-11T07:10:33.358Z,99.33
2017-10-11T07:12:27.939Z,98.66
2017-10-11T07:13:28.362Z,99.15
2017-10-11T07:14:28.794Z,98.95
2017-10-11T07:15:29.232Z,99.05
2017-10-11T07:16:29.660Z,99.24
2017-10-11T07:17:30.096Z,99.81
2017-10-11T07:18:30.532Z,99.99
2017-10-11T07:19:30.962Z,99.99
2017-10-11T07:20:31.396Z,99.99
2017-10-11T07:21:31.828Z,99.99
2017-10-11T07:22:32.267Z,99.99
2017-10-11T07:23:32.695Z,99.91
2017-10-11T07:24:33.129Z,99.72
2017-10-11T07:25:33.562Z,99.99
2017-10-11T07:26:33.994Z,99.99
2017-10-11T07:27:34.448Z,99.99
2017-10-11T07:28:34.861Z,99.99
2017-10-11T07:29:35.295Z,99.99
2017-10-11T07:30:35.730Z,99.62
2017-10-11T07:31:36.171Z,99.99
2017-10-11T07:32:36.595Z,99.99
2017-10-11T07:33:37.058Z,99.99
2017-10-11T07:34:37.470Z,99.99
2017-10-11T07:35:37.894Z,99.81
2017-10-11T07:36:38.345Z,99.72
2017-10-11T07:37:38.764Z,99.24
2017-10-11T07:38:39.205Z,99.05
2017-10-11T07:39:39.641Z,99.72
2017-10-11T07:40:40.077Z,99.43
2017-10-11T07:41:40.522Z,99.99
2017-10-11T07:42:40.952Z,99.62
2017-10-11T07:43:41.372Z,99.99
2017-10-11T07:44:41.794Z,99.91
2017-10-11T07:45:42.226Z,99.91
2017-10-11T07:46:42.669Z,99.62
2017-10-11T07:47:43.103Z,99.99
2017-10-11T07:48:43.535Z,99.99
2017-10-11T07:49:43.960Z,99.99
2017-10-11T07:50:44.391Z,99.81
2017-10-11T07:51:44.828Z,99.99
2017-10-11T07:52:45.263Z,99.99
2017-10-11T07:53:45.703Z,99.99
2017-10-11T07:54:46.133Z,99.99
2017-10-11T07:55:46.563Z,99.99
2017-10-11T07:56:46.993Z,99.99
2017-10-11T07:57:47.433Z,99.99
2017-10-11T07:58:47.862Z,99.99
2017-10-11T07:59:48.294Z,99.99
2017-10-11T08:00:48.728Z,99.99
2017-10-11T08:01:49.174Z,99.99
2017-10-11T08:02:49.596Z,99.99
2017-10-11T08:03:50.045Z,99.99
2017-10-11T08:04:50.467Z,99.99
2017-10-11T08:05:50.908Z,99.99
2017-10-11T08:06:51.334Z,99.99
2017-10-11T08:07:51.776Z,99.99
2017-10-11T08:08:52.203Z,99.99
2017-10-11T08:09:52.644Z,99.99
2017-10-11T08:10:53.072Z,99.99
2017-10-11T08:11:53.508Z,99.99
2017-10-11T08:12:53.942Z,99.99
2017-10-11T08:13:54.393Z,99.99
2017-10-11T08:14:54.818Z,99.99
2017-10-11T08:15:55.248Z,99.99
2017-10-11T08:16:55.677Z,99.99
2017-10-11T08:17:56.113Z,99.99
2017-10-11T08:18:56.550Z,99.99
2017-10-11T08:19:56.983Z,99.99
2017-10-11T08:20:57.443Z,99.99
2017-10-11T08:21:57.853Z,99.99
2017-10-11T08:22:58.287Z,99.99
2017-10-11T08:23:58.723Z,99.99
2017-10-11T08:24:59.174Z,99.99
2017-10-11T08:25:59.590Z,99.99
2017-10-11T08:27:00.023Z,99.99
2017-10-11T08:28:00.463Z,99.99
2017-10-11T08:29:00.895Z,99.99
2017-10-11T08:30:01.327Z,99.99
2017-10-11T08:31:01.780Z,99.99
2017-10-11T08:32:02.218Z,99.99
2017-10-11T08:33:02.622Z,99.99
2017-10-11T08:34:03.093Z,99.99
2017-10-11T08:35:03.504Z,99.99
2017-10-11T08:36:58.091Z,99.99
2017-10-11T08:37:58.511Z,99.99
2017-10-11T08:39:53.126Z,99.99
2017-10-11T08:40:53.548Z,99.99
2017-10-11T08:42:48.121Z,99.99
2017-10-11T08:43:48.565Z,99.99
2017-10-11T08:45:43.161Z,99.99
2017-10-11T08:46:43.584Z,99.99
2017-10-11T08:48:38.149Z,99.92
2017-10-11T08:49:38.591Z,98.96
2017-10-11T08:51:37.845Z,99.25
2017-10-11T08:52:38.262Z,99.01
2017-10-11T08:54:38.206Z,96.75
2017-10-11T08:55:38.642Z,95.89
2017-10-11T08:57:34.649Z,95.07
2017-10-11T09:00:08.191Z,96.22
2017-10-11T09:01:08.649Z,96.22
2017-10-11T09:02:09.078Z,96.08
2017-10-11T09:03:09.517Z,95.50
2017-10-11T09:04:09.961Z,95.21
2017-10-11T09:05:10.399Z,96.03
2017-10-11T09:06:10.841Z,96.80
2017-10-11T09:07:11.289Z,96.37
2017-10-11T09:08:11.728Z,95.79
2017-10-11T09:09:12.168Z,95.40
2017-10-11T09:10:12.615Z,96.17
2017-10-11T09:11:13.054Z,95.12
2017-10-11T09:12:13.494Z,95.03
2017-10-11T09:13:13.935Z,94.73
2017-10-11T09:14:14.375Z,95.26
2017-10-11T09:15:14.819Z,95.50
2017-10-11T09:16:15.261Z,95.45
2017-10-11T09:17:15.705Z,95.07
2017-10-11T09:18:16.144Z,95.89
2017-10-11T09:19:16.579Z,96.42
2017-10-11T09:20:17.031Z,96.27
2017-10-11T09:21:17.457Z,96.37
2017-10-11T09:22:17.892Z,96.18
2017-10-11T09:23:18.335Z,96.66
2017-10-11T09:24:18.769Z,97.24
2017-10-11T09:25:19.212Z,97.38
2017-10-11T09:26:19.645Z,97.24
2017-10-11T09:27:20.087Z,97.38
2017-10-11T09:28:20.527Z,97.28
2017-10-11T09:29:20.965Z,98.72
2017-10-11T09:30:21.400Z,98.24
2017-10-11T09:31:21.847Z,98.33
2017-10-11T09:32:22.275Z,97.66
2017-10-11T09:33:22.711Z,97.86
2017-10-11T09:34:23.151Z,97.38
2017-10-11T09:35:23.583Z,97.33
2017-10-11T09:36:24.046Z,96.47
2017-10-11T09:37:24.489Z,96.56
2017-10-11T09:38:24.926Z,96.37
2017-10-11T09:39:25.323Z,96.56
2017-10-11T09:40:25.768Z,97.19
2017-10-11T09:41:26.215Z,96.37
2017-10-11T09:42:26.645Z,96.66
2017-10-11T09:43:27.085Z,96.27
2017-10-11T09:44:27.541Z,96.56
2017-10-11T09:45:27.956Z,96.37
2017-10-11T09:46:28.380Z,96.22
2017-10-11T09:47:28.828Z,96.61
2017-10-11T09:48:29.271Z,97.76
2017-10-11T09:49:29.704Z,97.56
2017-10-11T09:50:30.139Z,97.19
2017-10-11T09:51:30.592Z,97.19
2017-10-11T09:52:31.018Z,97.19
2017-10-11T09:53:31.450Z,96.32
2017-10-11T09:54:31.897Z,96.61
2017-10-11T09:55:32.322Z,96.56
2017-10-11T09:56:32.763Z,96.80
2017-10-11T09:57:33.198Z,96.80
2017-10-11T09:58:33.636Z,98.77
2017-10-11T10:02:42.757Z,97.95
2017-10-11T10:06:50.734Z,97.66
2017-10-11T10:07:51.155Z,96.85
2017-10-11T10:09:45.756Z,96.47
2017-10-11T10:10:46.178Z,96.27
2017-10-11T10:12:40.760Z,96.61
2017-10-11T10:13:41.195Z,96.66
2017-10-11T10:15:35.771Z,97.19
2017-10-11T10:16:36.195Z,97.38
2017-10-11T10:17:36.630Z,96.47
2017-10-11T10:18:37.072Z,97.38
2017-10-11T10:19:37.503Z,97.28
2017-10-11T10:20:37.941Z,97.56
2017-10-11T10:21:38.378Z,96.89
2017-10-11T10:22:38.816Z,97.47
2017-10-11T10:23:39.254Z,98.48
2017-10-11T10:24:39.685Z,98.57
2017-10-11T10:25:40.124Z,98.33
2017-10-11T10:26:40.558Z,98.19
2017-10-11T10:27:40.994Z,98.86
2017-10-11T10:28:41.429Z,98.57
2017-10-11T10:29:41.867Z,98.96
2017-10-11T10:30:42.305Z,98.86
2017-10-11T10:31:42.737Z,98.48
2017-10-11T10:32:43.175Z,98.38
2017-10-11T10:33:43.609Z,98.38
2017-10-11T10:34:44.043Z,98.10
2017-10-11T10:35:44.482Z,98.10
2017-10-11T10:36:44.916Z,98.48
2017-10-11T10:37:45.352Z,98.38
2017-10-11T10:38:45.785Z,98.38
2017-10-11T10:39:46.219Z,98.19
2017-10-11T10:40:46.659Z,98.14
2017-10-11T10:41:47.089Z,98.81
2017-10-11T10:42:47.527Z,98.38
2017-10-11T10:43:47.960Z,98.67
2017-10-11T10:44:48.393Z,98.57
2017-10-11T10:45:48.830Z,98.57
2017-10-11T10:46:49.263Z,98.81
2017-10-11T10:47:49.709Z,98.33
2017-10-11T10:48:50.134Z,99.29
2017-10-11T10:49:50.571Z,98.91
2017-10-11T10:50:51.004Z,98.77
2017-10-11T10:51:51.440Z,99.10
2017-10-11T10:52:51.879Z,98.86
2017-10-11T10:53:52.311Z,98.43
2017-10-11T10:54:52.743Z,98.81
2017-10-11T10:55:53.176Z,99.01
2017-10-11T10:56:53.614Z,99.29
2017-10-11T10:57:54.047Z,99.19
2017-10-11T10:58:54.496Z,98.91
2017-10-11T10:59:54.918Z,99.48
2017-10-11T11:00:55.354Z,98.81
2017-10-11T11:01:55.789Z,98.91
2017-10-11T11:02:56.224Z,98.67
2017-10-11T11:03:56.658Z,98.76
2017-10-11T11:04:57.096Z,99.10
2017-10-11T11:05:57.530Z,98.38
2017-10-11T11:06:57.968Z,98.67
2017-10-11T11:07:58.400Z,96.94
2017-10-11T11:08:58.845Z,97.61
2017-10-11T11:09:59.278Z,97.23
2017-10-11T11:10:59.712Z,93.74
2017-10-11T11:12:00.144Z,93.35
2017-10-11T11:13:00.576Z,92.87
2017-10-11T11:14:01.009Z,92.30
2017-10-11T11:15:01.444Z,90.05
2017-10-11T11:16:01.879Z,89.86
2017-10-11T11:17:02.316Z,87.85
2017-10-11T11:18:02.751Z,88.52
2017-10-11T11:19:03.183Z,87.85
2017-10-11T11:20:03.624Z,87.66
2017-10-11T11:21:04.050Z,86.90
2017-10-11T11:22:04.485Z,86.04
2017-10-11T11:23:04.918Z,86.90
2017-10-11T11:24:05.352Z,86.61
2017-10-11T11:25:05.792Z,87.08
2017-10-11T11:26:06.227Z,83.93
2017-10-11T11:27:06.655Z,83.36
2017-10-11T11:28:07.093Z,82.87
2017-10-11T11:29:07.524Z,82.87
2017-10-11T11:30:07.958Z,81.97
2017-10-11T11:31:08.390Z,83.26
2017-10-11T11:32:08.828Z,85.17
2017-10-11T11:33:09.259Z,84.79
2017-10-11T11:34:09.698Z,84.88
2017-10-11T11:35:10.130Z,84.98
2017-10-11T11:36:10.562Z,85.17
2017-10-11T11:37:10.994Z,85.17
2017-10-11T11:38:11.425Z,84.12
2017-10-11T11:39:11.861Z,83.16
2017-10-11T11:40:12.292Z,80.87
2017-10-11T11:41:12.726Z,82.87
2017-10-11T11:42:13.160Z,83.26
2017-10-11T11:43:13.596Z,84.98
2017-10-11T11:44:14.031Z,86.70
2017-10-11T11:45:14.474Z,86.99
2017-10-11T11:46:14.897Z,86.80
2017-10-11T11:47:15.327Z,82.11
2017-10-11T11:48:15.763Z,83.26
2017-10-11T11:49:16.256Z,82.68
2017-10-11T11:50:16.635Z,82.78
2017-10-11T11:51:17.067Z,83.26
2017-10-11T11:52:17.494Z,82.78
2017-10-11T11:53:17.932Z,82.20
2017-10-11T11:54:18.365Z,82.11
2017-10-11T11:55:18.802Z,83.06
2017-10-11T11:56:19.229Z,83.39
2017-10-11T11:57:19.667Z,82.01
2017-10-11T11:58:20.098Z,83.01
2017-10-11T11:59:20.532Z,84.26
2017-10-11T12:00:20.964Z,85.36
2017-10-11T12:01:21.402Z,84.22
2017-10-11T12:02:21.835Z,83.97
2017-10-11T12:03:22.276Z,85.12
2017-10-11T12:04:22.716Z,85.60
2017-10-11T12:05:23.142Z,85.69
2017-10-11T12:06:23.595Z,88.76
2017-10-11T12:07:24.005Z,88.80
2017-10-11T12:08:24.445Z,89.47
2017-10-11T12:09:24.874Z,90.43
2017-10-11T12:10:25.310Z,91.49
2017-10-11T12:11:25.745Z,93.59
2017-10-11T12:12:26.175Z,92.54
2017-10-11T12:13:26.614Z,93.69
2017-10-11T12:14:27.050Z,92.77
2017-10-11T12:15:27.485Z,94.21
2017-10-11T12:16:27.919Z,94.89
2017-10-11T12:17:28.358Z,94.02
2017-10-11T12:18:28.791Z,93.93
2017-10-11T12:19:29.231Z,94.79
2017-10-11T12:20:29.665Z,95.75
2017-10-11T12:21:30.103Z,97.47
2017-10-11T12:22:30.538Z,96.51
2017-10-11T12:23:30.973Z,95.94
2017-10-11T12:24:31.412Z,95.94
2017-10-11T12:25:31.846Z,96.42
2017-10-11T12:26:32.283Z,96.99
2017-10-11T12:27:32.721Z,97.47
2017-10-11T12:28:33.162Z,95.70
2017-10-11T12:29:33.592Z,95.07
2017-10-11T12:30:34.028Z,95.03
2017-10-11T12:31:34.468Z,93.88
2017-10-11T12:32:34.902Z,94.45
2017-10-11T12:33:35.335Z,93.98
2017-10-11T12:34:35.775Z,94.55
2017-10-11T12:35:36.212Z,95.12
2017-10-11T12:36:36.664Z,94.93
2017-10-11T12:37:37.084Z,95.46
2017-10-11T12:38:37.514Z,96.32
2017-10-11T12:39:37.953Z,97.56
2017-10-11T12:40:38.394Z,97.56
2017-10-11T12:41:38.827Z,98.14
2017-10-11T12:42:39.258Z,98.62
2017-10-11T12:43:39.694Z,98.24
2017-10-11T12:44:40.130Z,99.48
2017-10-11T12:45:40.564Z,98.81
2017-10-11T12:46:41.004Z,98.52
2017-10-11T12:47:41.438Z,98.33
2017-10-11T12:48:41.872Z,99.15
2017-10-11T12:49:42.307Z,99.34
2017-10-11T12:50:42.743Z,99.44
2017-10-11T12:51:43.187Z,99.99
2017-10-11T12:52:43.623Z,99.99
2017-10-11T12:53:44.051Z,99.44
2017-10-11T12:54:44.490Z,99.77
2017-10-11T12:55:44.923Z,99.48
2017-10-11T12:56:45.364Z,99.53
2017-10-11T12:57:45.795Z,99.73
2017-10-11T12:58:46.235Z,99.82
2017-10-11T12:59:46.671Z,99.99
2017-10-11T13:00:47.103Z,99.99
2017-10-11T13:01:47.543Z,99.99
2017-10-11T13:02:47.974Z,99.73
2017-10-11T13:03:48.411Z,99.87
2017-10-11T13:04:48.847Z,99.99
2017-10-11T13:05:49.292Z,99.99
2017-10-11T13:06:49.715Z,99.99
2017-10-11T13:07:50.157Z,99.99
2017-10-11T13:08:50.590Z,99.99
2017-10-11T13:09:51.027Z,99.99
2017-10-11T13:10:51.469Z,99.99
2017-10-11T13:11:51.904Z,99.99
2017-10-11T13:12:52.344Z,99.99
2017-10-11T13:13:52.773Z,99.99
2017-10-11T13:14:53.215Z,99.99
2017-10-11T13:15:53.649Z,99.99
2017-10-11T13:16:54.084Z,99.99
2017-10-11T13:17:54.519Z,99.99
2017-10-11T13:18:54.978Z,99.99
2017-10-11T13:19:55.392Z,99.99
2017-10-11T13:20:55.829Z,99.99
2017-10-11T13:21:56.265Z,99.99
2017-10-11T13:22:56.704Z,99.99
2017-10-11T13:23:57.139Z,99.99
2017-10-11T13:24:57.577Z,99.99
2017-10-11T13:25:58.013Z,99.99
2017-10-11T13:26:58.452Z,99.99
2017-10-11T13:27:58.887Z,99.99
2017-10-11T13:28:59.323Z,99.99
2017-10-11T13:29:59.761Z,99.99
2017-10-11T13:31:00.204Z,99.99
2017-10-11T13:32:00.694Z,99.99